ETME weather

CLOSED Eggebeck Air Base
Schleswig-Holstein, Germany

Public forecast

Using degrees Celsius for public forecast. Weather courtesy of forecast.io.

METAR (pilot weather report)

Closest report is Schleswig Air Base, 11.6 nm (21.4 km) SSE. Retrieved 2019/08/19 15:20 UTC (0 seconds ago):

ETNS 191520Z AUTO 22008KT 9000 // ////// 18/15 Q1014 ///

TAF (pilot weather forecast)

Forecast is more than 12 hours old.

Closest forecast is Schleswig Air Base, 11.6 nm (21.4 km) SSE. Retrieved 2019/01/28 18:31 UTC (7 months ago):

TAF ETNS 281725Z 2818/2909 33010G20KT 5000 BR SCT005 SCT018 BKN040 TEMPO 2818/2819 34010KT 1600 SN BKN003 BECMG 2818/2820 33010G20KT 9999 NSW FEW010 BKN025 TEMPO 2820/2824 34010G20KT 5000 BR BKN015 BY ETGL